sensor_id;sensor_type;location;lat;lon;timestamp;P1;durP1;ratioP1;P2;durP2;ratioP2
69126;SDS011;56688;50.234;19.292;2023-02-15T00:01:23;102.40;;;40.70;;
69126;SDS011;56688;50.234;19.292;2023-02-15T00:03:50;103.10;;;42.10;;
69126;SDS011;56688;50.234;19.292;2023-02-15T00:06:17;98.60;;;42.50;;
69126;SDS011;56688;50.234;19.292;2023-02-15T00:08:44;95.60;;;40.40;;
69126;SDS011;56688;50.234;19.292;2023-02-15T00:11:12;102.80;;;42.80;;
69126;SDS011;56688;50.234;19.292;2023-02-15T00:13:41;95.80;;;41.10;;
69126;SDS011;56688;50.234;19.292;2023-02-15T00:16:10;94.80;;;41.50;;
69126;SDS011;56688;50.234;19.292;2023-02-15T00:18:39;105.90;;;42.30;;
69126;SDS011;56688;50.234;19.292;2023-02-15T00:21:07;92.10;;;39.60;;
69126;SDS011;56688;50.234;19.292;2023-02-15T00:23:36;102.80;;;42.90;;
69126;SDS011;56688;50.234;19.292;2023-02-15T00:28:33;59.20;;;27.30;;
69126;SDS011;56688;50.234;19.292;2023-02-15T00:31:08;94.50;;;37.20;;
69126;SDS011;56688;50.234;19.292;2023-02-15T00:33:37;54.70;;;25.00;;
69126;SDS011;56688;50.234;19.292;2023-02-15T00:36:06;86.80;;;36.20;;
69126;SDS011;56688;50.234;19.292;2023-02-15T00:38:34;78.70;;;33.90;;
69126;SDS011;56688;50.234;19.292;2023-02-15T00:41:02;74.20;;;35.70;;
69126;SDS011;56688;50.234;19.292;2023-02-15T00:43:31;76.80;;;33.60;;
69126;SDS011;56688;50.234;19.292;2023-02-15T00:46:00;88.00;;;37.30;;
69126;SDS011;56688;50.234;19.292;2023-02-15T00:48:28;61.30;;;28.80;;
69126;SDS011;56688;50.234;19.292;2023-02-15T00:50:57;62.00;;;27.10;;
69126;SDS011;56688;50.234;19.292;2023-02-15T00:53:26;67.50;;;30.70;;
69126;SDS011;56688;50.234;19.292;2023-02-15T00:55:54;72.00;;;31.40;;
69126;SDS011;56688;50.234;19.292;2023-02-15T00:58:21;51.30;;;24.00;;
69126;SDS011;56688;50.234;19.292;2023-02-15T01:00:49;59.30;;;25.90;;
69126;SDS011;56688;50.234;19.292;2023-02-15T01:03:16;54.80;;;24.80;;
69126;SDS011;56688;50.234;19.292;2023-02-15T01:05:46;49.40;;;24.70;;
69126;SDS011;56688;50.234;19.292;2023-02-15T01:08:13;54.70;;;25.10;;
69126;SDS011;56688;50.234;19.292;2023-02-15T01:10:41;53.90;;;25.90;;
69126;SDS011;56688;50.234;19.292;2023-02-15T01:13:10;45.10;;;22.30;;
69126;SDS011;56688;50.234;19.292;2023-02-15T01:15:37;52.20;;;22.10;;
69126;SDS011;56688;50.234;19.292;2023-02-15T01:18:04;58.80;;;28.30;;
69126;SDS011;56688;50.234;19.292;2023-02-15T01:20:33;57.90;;;27.70;;
69126;SDS011;56688;50.234;19.292;2023-02-15T01:23:03;42.40;;;23.00;;
69126;SDS011;56688;50.234;19.292;2023-02-15T01:25:30;42.90;;;22.10;;
69126;SDS011;56688;50.234;19.292;2023-02-15T01:27:56;35.00;;;16.60;;
69126;SDS011;56688;50.234;19.292;2023-02-15T01:30:23;32.20;;;15.10;;
69126;SDS011;56688;50.234;19.292;2023-02-15T01:32:50;37.50;;;18.00;;
69126;SDS011;56688;50.234;19.292;2023-02-15T01:35:17;33.80;;;16.30;;
69126;SDS011;56688;50.234;19.292;2023-02-15T01:37:45;34.70;;;16.60;;
69126;SDS011;56688;50.234;19.292;2023-02-15T01:40:13;42.40;;;16.80;;
69126;SDS011;56688;50.234;19.292;2023-02-15T01:42:43;38.40;;;15.80;;
69126;SDS011;56688;50.234;19.292;2023-02-15T01:45:18;36.80;;;17.80;;
69126;SDS011;56688;50.234;19.292;2023-02-15T01:47:56;40.90;;;17.40;;
69126;SDS011;56688;50.234;19.292;2023-02-15T01:50:30;39.60;;;18.00;;
69126;SDS011;56688;50.234;19.292;2023-02-15T01:55:38;39.80;;;16.60;;
69126;SDS011;56688;50.234;19.292;2023-02-15T01:58:09;39.60;;;15.20;;
69126;SDS011;56688;50.234;19.292;2023-02-15T02:00:36;40.10;;;16.50;;
69126;SDS011;56688;50.234;19.292;2023-02-15T02:03:03;38.50;;;17.50;;
69126;SDS011;56688;50.234;19.292;2023-02-15T02:05:30;41.50;;;17.80;;
69126;SDS011;56688;50.234;19.292;2023-02-15T02:08:00;44.10;;;17.70;;
69126;SDS011;56688;50.234;19.292;2023-02-15T02:10:30;48.60;;;19.90;;
69126;SDS011;56688;50.234;19.292;2023-02-15T02:12:58;43.50;;;18.30;;
69126;SDS011;56688;50.234;19.292;2023-02-15T02:15:33;50.30;;;20.70;;
69126;SDS011;56688;50.234;19.292;2023-02-15T02:18:17;44.30;;;17.70;;
69126;SDS011;56688;50.234;19.292;2023-02-15T02:21:01;44.10;;;18.10;;
69126;SDS011;56688;50.234;19.292;2023-02-15T02:34:09;39.60;;;16.60;;
69126;SDS011;56688;50.234;19.292;2023-02-15T02:42:06;40.50;;;18.80;;
69126;SDS011;56688;50.234;19.292;2023-02-15T02:44:46;30.40;;;14.80;;
69126;SDS011;56688;50.234;19.292;2023-02-15T02:50:00;35.10;;;16.60;;
69126;SDS011;56688;50.234;19.292;2023-02-15T02:52:36;30.80;;;14.70;;
69126;SDS011;56688;50.234;19.292;2023-02-15T02:55:08;33.30;;;15.10;;
69126;SDS011;56688;50.234;19.292;2023-02-15T02:57:41;34.40;;;16.80;;
69126;SDS011;56688;50.234;19.292;2023-02-15T03:00:15;31.50;;;13.20;;
69126;SDS011;56688;50.234;19.292;2023-02-15T03:02:44;32.80;;;15.30;;
69126;SDS011;56688;50.234;19.292;2023-02-15T03:05:15;29.40;;;15.00;;
69126;SDS011;56688;50.234;19.292;2023-02-15T03:07:48;31.60;;;15.70;;
69126;SDS011;56688;50.234;19.292;2023-02-15T03:10:17;34.80;;;16.20;;
69126;SDS011;56688;50.234;19.292;2023-02-15T03:12:49;35.20;;;15.90;;
69126;SDS011;56688;50.234;19.292;2023-02-15T03:15:19;35.80;;;17.40;;
69126;SDS011;56688;50.234;19.292;2023-02-15T03:17:52;33.10;;;15.60;;
69126;SDS011;56688;50.234;19.292;2023-02-15T03:20:30;22.80;;;12.20;;
69126;SDS011;56688;50.234;19.292;2023-02-15T03:23:03;34.30;;;17.40;;
69126;SDS011;56688;50.234;19.292;2023-02-15T03:25:34;36.00;;;16.20;;
69126;SDS011;56688;50.234;19.292;2023-02-15T03:28:07;34.70;;;17.20;;
69126;SDS011;56688;50.234;19.292;2023-02-15T03:30:38;30.50;;;14.90;;
69126;SDS011;56688;50.234;19.292;2023-02-15T03:33:08;38.40;;;17.90;;
69126;SDS011;56688;50.234;19.292;2023-02-15T03:35:39;37.10;;;17.30;;
69126;SDS011;56688;50.234;19.292;2023-02-15T03:38:25;32.10;;;15.50;;
69126;SDS011;56688;50.234;19.292;2023-02-15T03:40:58;36.70;;;17.40;;
69126;SDS011;56688;50.234;19.292;2023-02-15T03:46:28;34.40;;;17.30;;
69126;SDS011;56688;50.234;19.292;2023-02-15T03:49:04;28.60;;;15.30;;
69126;SDS011;56688;50.234;19.292;2023-02-15T03:51:35;24.80;;;15.20;;
69126;SDS011;56688;50.234;19.292;2023-02-15T03:54:07;31.00;;;15.60;;
69126;SDS011;56688;50.234;19.292;2023-02-15T03:59:06;27.20;;;15.10;;
69126;SDS011;56688;50.234;19.292;2023-02-15T04:01:54;25.30;;;13.50;;
69126;SDS011;56688;50.234;19.292;2023-02-15T04:04:41;26.80;;;14.30;;
69126;SDS011;56688;50.234;19.292;2023-02-15T04:07:11;27.00;;;15.70;;
69126;SDS011;56688;50.234;19.292;2023-02-15T04:09:38;26.40;;;13.90;;
69126;SDS011;56688;50.234;19.292;2023-02-15T04:12:21;25.40;;;14.10;;
69126;SDS011;56688;50.234;19.292;2023-02-15T04:14:48;26.00;;;13.60;;
69126;SDS011;56688;50.234;19.292;2023-02-15T04:17:30;27.70;;;14.50;;
69126;SDS011;56688;50.234;19.292;2023-02-15T04:19:57;25.00;;;14.70;;
69126;SDS011;56688;50.234;19.292;2023-02-15T04:22:40;19.30;;;12.20;;
69126;SDS011;56688;50.234;19.292;2023-02-15T04:25:24;25.70;;;14.20;;
69126;SDS011;56688;50.234;19.292;2023-02-15T04:28:04;22.20;;;13.30;;
69126;SDS011;56688;50.234;19.292;2023-02-15T04:30:46;27.00;;;13.80;;
69126;SDS011;56688;50.234;19.292;2023-02-15T04:33:14;29.40;;;15.00;;
69126;SDS011;56688;50.234;19.292;2023-02-15T04:35:40;21.20;;;12.40;;
69126;SDS011;56688;50.234;19.292;2023-02-15T04:38:11;23.30;;;13.30;;
69126;SDS011;56688;50.234;19.292;2023-02-15T04:40:38;23.50;;;13.60;;
69126;SDS011;56688;50.234;19.292;2023-02-15T04:43:05;15.90;;;9.80;;
69126;SDS011;56688;50.234;19.292;2023-02-15T04:45:31;23.90;;;13.60;;
69126;SDS011;56688;50.234;19.292;2023-02-15T04:47:58;22.80;;;12.60;;
69126;SDS011;56688;50.234;19.292;2023-02-15T04:50:25;20.30;;;11.50;;
69126;SDS011;56688;50.234;19.292;2023-02-15T04:52:52;20.70;;;11.80;;
69126;SDS011;56688;50.234;19.292;2023-02-15T04:55:19;26.40;;;13.20;;
69126;SDS011;56688;50.234;19.292;2023-02-15T04:57:46;16.80;;;11.00;;
69126;SDS011;56688;50.234;19.292;2023-02-15T05:00:12;19.70;;;11.20;;
69126;SDS011;56688;50.234;19.292;2023-02-15T05:02:40;21.80;;;12.20;;
69126;SDS011;56688;50.234;19.292;2023-02-15T05:05:06;15.10;;;7.70;;
69126;SDS011;56688;50.234;19.292;2023-02-15T05:07:35;18.60;;;10.00;;
69126;SDS011;56688;50.234;19.292;2023-02-15T05:10:02;19.50;;;9.50;;
69126;SDS011;56688;50.234;19.292;2023-02-15T05:12:30;20.60;;;12.60;;
69126;SDS011;56688;50.234;19.292;2023-02-15T05:14:57;22.10;;;12.30;;
69126;SDS011;56688;50.234;19.292;2023-02-15T05:17:24;19.60;;;11.80;;
69126;SDS011;56688;50.234;19.292;2023-02-15T05:19:50;17.60;;;10.20;;
69126;SDS011;56688;50.234;19.292;2023-02-15T05:22:17;24.70;;;13.70;;
69126;SDS011;56688;50.234;19.292;2023-02-15T05:24:44;17.40;;;9.70;;
69126;SDS011;56688;50.234;19.292;2023-02-15T05:27:26;25.40;;;13.20;;
69126;SDS011;56688;50.234;19.292;2023-02-15T05:30:09;22.90;;;12.60;;
69126;SDS011;56688;50.234;19.292;2023-02-15T05:32:38;25.00;;;13.60;;
69126;SDS011;56688;50.234;19.292;2023-02-15T05:35:06;23.60;;;13.50;;
69126;SDS011;56688;50.234;19.292;2023-02-15T05:37:34;18.30;;;10.00;;
69126;SDS011;56688;50.234;19.292;2023-02-15T05:40:00;21.10;;;12.30;;
69126;SDS011;56688;50.234;19.292;2023-02-15T05:42:27;25.90;;;13.80;;
69126;SDS011;56688;50.234;19.292;2023-02-15T05:44:54;23.40;;;12.20;;
69126;SDS011;56688;50.234;19.292;2023-02-15T05:47:21;28.80;;;14.60;;
69126;SDS011;56688;50.234;19.292;2023-02-15T05:49:48;27.90;;;15.20;;
69126;SDS011;56688;50.234;19.292;2023-02-15T05:52:14;20.60;;;12.20;;
69126;SDS011;56688;50.234;19.292;2023-02-15T05:54:41;29.50;;;15.00;;
69126;SDS011;56688;50.234;19.292;2023-02-15T05:57:08;27.00;;;15.40;;
69126;SDS011;56688;50.234;19.292;2023-02-15T05:59:35;27.30;;;14.60;;
69126;SDS011;56688;50.234;19.292;2023-02-15T06:02:02;26.70;;;13.00;;
69126;SDS011;56688;50.234;19.292;2023-02-15T06:04:29;24.50;;;14.10;;
69126;SDS011;56688;50.234;19.292;2023-02-15T06:06:55;17.40;;;9.00;;
69126;SDS011;56688;50.234;19.292;2023-02-15T06:09:22;29.20;;;15.00;;
69126;SDS011;56688;50.234;19.292;2023-02-15T06:11:49;29.70;;;16.60;;
69126;SDS011;56688;50.234;19.292;2023-02-15T06:14:16;30.20;;;16.60;;
69126;SDS011;56688;50.234;19.292;2023-02-15T06:16:43;24.10;;;11.00;;
69126;SDS011;56688;50.234;19.292;2023-02-15T06:19:10;24.50;;;12.90;;
69126;SDS011;56688;50.234;19.292;2023-02-15T06:21:36;37.10;;;16.60;;
69126;SDS011;56688;50.234;19.292;2023-02-15T06:24:03;31.30;;;16.50;;
69126;SDS011;56688;50.234;19.292;2023-02-15T06:26:30;32.00;;;18.10;;
69126;SDS011;56688;50.234;19.292;2023-02-15T06:28:57;29.60;;;15.70;;
69126;SDS011;56688;50.234;19.292;2023-02-15T06:31:24;27.60;;;16.60;;
69126;SDS011;56688;50.234;19.292;2023-02-15T06:33:51;36.70;;;18.50;;
69126;SDS011;56688;50.234;19.292;2023-02-15T06:36:18;34.10;;;18.80;;
69126;SDS011;56688;50.234;19.292;2023-02-15T06:38:44;31.70;;;16.60;;
69126;SDS011;56688;50.234;19.292;2023-02-15T06:41:11;27.40;;;14.00;;
69126;SDS011;56688;50.234;19.292;2023-02-15T06:43:38;31.80;;;17.90;;
69126;SDS011;56688;50.234;19.292;2023-02-15T06:46:06;36.00;;;18.10;;
69126;SDS011;56688;50.234;19.292;2023-02-15T06:48:33;34.10;;;17.60;;
69126;SDS011;56688;50.234;19.292;2023-02-15T06:51:00;33.40;;;17.90;;
69126;SDS011;56688;50.234;19.292;2023-02-15T06:53:26;31.90;;;18.10;;
69126;SDS011;56688;50.234;19.292;2023-02-15T06:55:59;30.10;;;17.80;;
69126;SDS011;56688;50.234;19.292;2023-02-15T06:58:29;35.50;;;17.80;;
69126;SDS011;56688;50.234;19.292;2023-02-15T07:00:56;30.80;;;15.80;;
69126;SDS011;56688;50.234;19.292;2023-02-15T07:03:22;35.20;;;18.10;;
69126;SDS011;56688;50.234;19.292;2023-02-15T07:05:53;29.70;;;15.20;;
69126;SDS011;56688;50.234;19.292;2023-02-15T07:08:21;32.60;;;17.90;;
69126;SDS011;56688;50.234;19.292;2023-02-15T07:10:49;27.90;;;16.30;;
69126;SDS011;56688;50.234;19.292;2023-02-15T07:13:17;31.60;;;16.80;;
69126;SDS011;56688;50.234;19.292;2023-02-15T07:15:44;37.30;;;18.20;;
69126;SDS011;56688;50.234;19.292;2023-02-15T07:18:12;37.30;;;21.30;;
69126;SDS011;56688;50.234;19.292;2023-02-15T07:20:40;33.60;;;16.70;;
69126;SDS011;56688;50.234;19.292;2023-02-15T07:23:08;26.90;;;15.40;;
69126;SDS011;56688;50.234;19.292;2023-02-15T07:25:35;37.00;;;19.10;;
69126;SDS011;56688;50.234;19.292;2023-02-15T07:28:03;33.60;;;18.90;;
69126;SDS011;56688;50.234;19.292;2023-02-15T07:30:30;30.00;;;17.00;;
69126;SDS011;56688;50.234;19.292;2023-02-15T07:32:57;33.00;;;18.90;;
69126;SDS011;56688;50.234;19.292;2023-02-15T07:35:45;32.20;;;18.10;;
69126;SDS011;56688;50.234;19.292;2023-02-15T07:38:13;28.50;;;16.50;;
69126;SDS011;56688;50.234;19.292;2023-02-15T07:40:40;31.30;;;17.70;;
69126;SDS011;56688;50.234;19.292;2023-02-15T07:43:07;31.00;;;15.40;;
69126;SDS011;56688;50.234;19.292;2023-02-15T07:45:33;29.20;;;16.30;;
69126;SDS011;56688;50.234;19.292;2023-02-15T07:48:01;29.00;;;15.70;;
69126;SDS011;56688;50.234;19.292;2023-02-15T07:50:28;31.80;;;17.80;;
69126;SDS011;56688;50.234;19.292;2023-02-15T07:52:55;30.90;;;16.60;;
69126;SDS011;56688;50.234;19.292;2023-02-15T07:55:22;25.50;;;13.60;;
69126;SDS011;56688;50.234;19.292;2023-02-15T07:57:49;33.00;;;17.60;;
69126;SDS011;56688;50.234;19.292;2023-02-15T08:00:17;31.00;;;16.80;;
69126;SDS011;56688;50.234;19.292;2023-02-15T08:02:48;34.90;;;17.30;;
69126;SDS011;56688;50.234;19.292;2023-02-15T08:05:36;29.80;;;15.40;;
69126;SDS011;56688;50.234;19.292;2023-02-15T08:08:03;27.60;;;16.90;;
69126;SDS011;56688;50.234;19.292;2023-02-15T08:10:30;32.10;;;17.70;;
69126;SDS011;56688;50.234;19.292;2023-02-15T08:13:13;26.70;;;15.30;;
69126;SDS011;56688;50.234;19.292;2023-02-15T08:15:39;31.80;;;17.00;;
69126;SDS011;56688;50.234;19.292;2023-02-15T08:18:06;30.80;;;18.40;;
69126;SDS011;56688;50.234;19.292;2023-02-15T08:20:33;41.00;;;21.50;;
69126;SDS011;56688;50.234;19.292;2023-02-15T08:23:00;25.50;;;14.60;;
69126;SDS011;56688;50.234;19.292;2023-02-15T08:25:27;55.80;;;27.10;;
69126;SDS011;56688;50.234;19.292;2023-02-15T08:27:53;39.80;;;20.40;;
69126;SDS011;56688;50.234;19.292;2023-02-15T08:30:20;40.50;;;20.40;;
69126;SDS011;56688;50.234;19.292;2023-02-15T08:32:47;44.10;;;22.00;;
69126;SDS011;56688;50.234;19.292;2023-02-15T08:35:14;47.20;;;23.50;;
69126;SDS011;56688;50.234;19.292;2023-02-15T08:37:41;32.70;;;17.80;;
69126;SDS011;56688;50.234;19.292;2023-02-15T08:40:08;26.50;;;14.80;;
69126;SDS011;56688;50.234;19.292;2023-02-15T08:42:35;30.20;;;17.70;;
69126;SDS011;56688;50.234;19.292;2023-02-15T08:45:02;25.10;;;15.80;;
69126;SDS011;56688;50.234;19.292;2023-02-15T08:47:29;28.20;;;15.60;;
69126;SDS011;56688;50.234;19.292;2023-02-15T08:49:56;23.40;;;14.70;;
69126;SDS011;56688;50.234;19.292;2023-02-15T08:52:23;25.50;;;14.70;;
69126;SDS011;56688;50.234;19.292;2023-02-15T08:54:49;30.80;;;17.80;;
69126;SDS011;56688;50.234;19.292;2023-02-15T08:57:16;30.70;;;18.10;;
69126;SDS011;56688;50.234;19.292;2023-02-15T08:59:43;28.70;;;17.30;;
69126;SDS011;56688;50.234;19.292;2023-02-15T09:02:10;40.60;;;23.00;;
69126;SDS011;56688;50.234;19.292;2023-02-15T09:04:37;26.50;;;16.30;;
69126;SDS011;56688;50.234;19.292;2023-02-15T09:07:04;27.90;;;17.50;;
69126;SDS011;56688;50.234;19.292;2023-02-15T09:09:31;24.80;;;16.00;;
69126;SDS011;56688;50.234;19.292;2023-02-15T09:11:58;27.10;;;17.30;;
69126;SDS011;56688;50.234;19.292;2023-02-15T09:14:25;28.00;;;17.30;;
69126;SDS011;56688;50.234;19.292;2023-02-15T09:16:53;25.30;;;17.00;;
69126;SDS011;56688;50.234;19.292;2023-02-15T09:19:21;28.50;;;17.50;;
69126;SDS011;56688;50.234;19.292;2023-02-15T09:21:49;31.30;;;18.10;;
69126;SDS011;56688;50.234;19.292;2023-02-15T09:24:16;36.30;;;20.00;;
69126;SDS011;56688;50.234;19.292;2023-02-15T09:26:45;63.80;;;33.00;;
69126;SDS011;56688;50.234;19.292;2023-02-15T09:29:15;28.00;;;19.90;;
69126;SDS011;56688;50.234;19.292;2023-02-15T09:31:44;24.60;;;16.90;;
69126;SDS011;56688;50.234;19.292;2023-02-15T09:34:13;21.50;;;15.90;;
69126;SDS011;56688;50.234;19.292;2023-02-15T09:36:43;23.00;;;16.10;;
69126;SDS011;56688;50.234;19.292;2023-02-15T09:39:12;27.70;;;17.70;;
69126;SDS011;56688;50.234;19.292;2023-02-15T10:03:35;25.00;;;16.40;;
69126;SDS011;56688;50.234;19.292;2023-02-15T10:06:16;26.00;;;17.20;;
69126;SDS011;56688;50.234;19.292;2023-02-15T10:11:40;25.60;;;17.40;;
69126;SDS011;56688;50.234;19.292;2023-02-15T10:24:48;25.70;;;17.90;;
69126;SDS011;56688;50.234;19.292;2023-02-15T10:29:51;27.00;;;18.10;;
69126;SDS011;56688;50.234;19.292;2023-02-15T10:32:36;27.10;;;16.80;;
69126;SDS011;56688;50.234;19.292;2023-02-15T10:38:14;23.00;;;15.10;;
69126;SDS011;56688;50.234;19.292;2023-02-15T10:40:51;25.90;;;16.70;;
69126;SDS011;56688;50.234;19.292;2023-02-15T10:43:39;30.40;;;18.30;;
69126;SDS011;56688;50.234;19.292;2023-02-15T10:51:40;22.40;;;15.30;;
69126;SDS011;56688;50.234;19.292;2023-02-15T10:56:51;30.00;;;21.50;;
69126;SDS011;56688;50.234;19.292;2023-02-15T11:02:33;26.60;;;18.10;;
69126;SDS011;56688;50.234;19.292;2023-02-15T11:07:46;22.40;;;15.80;;
69126;SDS011;56688;50.234;19.292;2023-02-15T11:10:22;28.90;;;18.40;;
69126;SDS011;56688;50.234;19.292;2023-02-15T11:12:57;23.20;;;16.20;;
69126;SDS011;56688;50.234;19.292;2023-02-15T11:15:33;25.80;;;17.10;;
69126;SDS011;56688;50.234;19.292;2023-02-15T11:18:14;24.00;;;15.80;;
69126;SDS011;56688;50.234;19.292;2023-02-15T11:20:53;26.60;;;17.60;;
69126;SDS011;56688;50.234;19.292;2023-02-15T11:23:24;27.20;;;17.10;;
69126;SDS011;56688;50.234;19.292;2023-02-15T11:25:56;24.90;;;17.30;;
69126;SDS011;56688;50.234;19.292;2023-02-15T11:31:25;29.00;;;18.70;;
69126;SDS011;56688;50.234;19.292;2023-02-15T11:34:02;29.70;;;18.80;;
69126;SDS011;56688;50.234;19.292;2023-02-15T11:36:39;24.10;;;16.40;;
69126;SDS011;56688;50.234;19.292;2023-02-15T11:39:09;23.90;;;16.40;;
69126;SDS011;56688;50.234;19.292;2023-02-15T11:41:38;24.20;;;16.60;;
69126;SDS011;56688;50.234;19.292;2023-02-15T11:46:59;23.40;;;15.80;;
69126;SDS011;56688;50.234;19.292;2023-02-15T11:51:57;27.90;;;17.50;;
69126;SDS011;56688;50.234;19.292;2023-02-15T11:54:29;23.50;;;16.50;;
69126;SDS011;56688;50.234;19.292;2023-02-15T11:57:02;23.30;;;16.80;;
69126;SDS011;56688;50.234;19.292;2023-02-15T11:59:39;22.60;;;16.00;;
69126;SDS011;56688;50.234;19.292;2023-02-15T12:02:15;22.20;;;15.80;;
69126;SDS011;56688;50.234;19.292;2023-02-15T12:04:46;25.00;;;15.80;;
69126;SDS011;56688;50.234;19.292;2023-02-15T12:07:20;24.70;;;16.60;;
69126;SDS011;56688;50.234;19.292;2023-02-15T12:14:59;21.50;;;14.60;;
69126;SDS011;56688;50.234;19.292;2023-02-15T12:17:28;19.20;;;14.30;;
69126;SDS011;56688;50.234;19.292;2023-02-15T12:20:00;20.10;;;14.30;;
69126;SDS011;56688;50.234;19.292;2023-02-15T12:22:31;21.80;;;14.00;;
69126;SDS011;56688;50.234;19.292;2023-02-15T12:25:00;20.10;;;14.80;;
69126;SDS011;56688;50.234;19.292;2023-02-15T12:27:31;18.80;;;14.30;;
69126;SDS011;56688;50.234;19.292;2023-02-15T12:32:31;18.90;;;12.90;;
69126;SDS011;56688;50.234;19.292;2023-02-15T12:35:06;17.80;;;12.40;;
69126;SDS011;56688;50.234;19.292;2023-02-15T12:37:40;16.90;;;12.30;;
69126;SDS011;56688;50.234;19.292;2023-02-15T12:40:25;19.50;;;13.10;;
69126;SDS011;56688;50.234;19.292;2023-02-15T12:42:57;18.50;;;13.00;;
69126;SDS011;56688;50.234;19.292;2023-02-15T12:48:07;19.90;;;13.80;;
69126;SDS011;56688;50.234;19.292;2023-02-15T12:50:41;19.00;;;12.40;;
69126;SDS011;56688;50.234;19.292;2023-02-15T12:56:15;19.40;;;14.30;;
69126;SDS011;56688;50.234;19.292;2023-02-15T12:59:03;18.90;;;13.90;;
69126;SDS011;56688;50.234;19.292;2023-02-15T13:01:32;14.90;;;12.30;;
69126;SDS011;56688;50.234;19.292;2023-02-15T13:04:01;16.30;;;12.50;;
69126;SDS011;56688;50.234;19.292;2023-02-15T13:06:33;17.40;;;13.10;;
69126;SDS011;56688;50.234;19.292;2023-02-15T13:11:51;16.70;;;12.30;;
69126;SDS011;56688;50.234;19.292;2023-02-15T13:14:30;15.80;;;12.70;;
69126;SDS011;56688;50.234;19.292;2023-02-15T13:17:00;18.70;;;11.80;;
69126;SDS011;56688;50.234;19.292;2023-02-15T13:19:33;14.60;;;11.70;;
69126;SDS011;56688;50.234;19.292;2023-02-15T13:22:05;14.60;;;12.10;;
69126;SDS011;56688;50.234;19.292;2023-02-15T13:27:12;18.30;;;13.10;;
69126;SDS011;56688;50.234;19.292;2023-02-15T13:29:46;15.20;;;12.80;;
69126;SDS011;56688;50.234;19.292;2023-02-15T13:32:26;16.90;;;12.70;;
69126;SDS011;56688;50.234;19.292;2023-02-15T13:34:57;13.90;;;10.50;;
69126;SDS011;56688;50.234;19.292;2023-02-15T13:40:25;13.90;;;10.90;;
69126;SDS011;56688;50.234;19.292;2023-02-15T13:43:03;18.20;;;12.00;;
69126;SDS011;56688;50.234;19.292;2023-02-15T13:53:55;13.10;;;9.60;;
69126;SDS011;56688;50.234;19.292;2023-02-15T13:56:40;12.40;;;10.10;;
69126;SDS011;56688;50.234;19.292;2023-02-15T13:59:38;11.90;;;8.90;;
69126;SDS011;56688;50.234;19.292;2023-02-15T14:05:02;12.40;;;9.60;;
69126;SDS011;56688;50.234;19.292;2023-02-15T14:24:47;13.40;;;9.40;;
69126;SDS011;56688;50.234;19.292;2023-02-15T14:27:27;15.50;;;10.50;;
69126;SDS011;56688;50.234;19.292;2023-02-15T14:32:55;11.80;;;9.20;;
69126;SDS011;56688;50.234;19.292;2023-02-15T14:35:28;11.80;;;9.30;;
69126;SDS011;56688;50.234;19.292;2023-02-15T14:40:57;12.60;;;9.50;;
69126;SDS011;56688;50.234;19.292;2023-02-15T14:46:21;13.20;;;8.20;;
69126;SDS011;56688;50.234;19.292;2023-02-15T14:48:56;12.00;;;9.50;;
69126;SDS011;56688;50.234;19.292;2023-02-15T14:56:44;12.90;;;9.60;;
69126;SDS011;56688;50.234;19.292;2023-02-15T15:01:39;13.00;;;10.20;;
69126;SDS011;56688;50.234;19.292;2023-02-15T15:04:09;12.80;;;9.60;;
69126;SDS011;56688;50.234;19.292;2023-02-15T15:06:41;13.80;;;9.40;;
69126;SDS011;56688;50.234;19.292;2023-02-15T15:14:13;17.40;;;11.40;;
69126;SDS011;56688;50.234;19.292;2023-02-15T15:16:57;15.10;;;10.40;;
69126;SDS011;56688;50.234;19.292;2023-02-15T15:22:18;18.10;;;11.00;;
69126;SDS011;56688;50.234;19.292;2023-02-15T15:24:48;12.70;;;9.70;;
69126;SDS011;56688;50.234;19.292;2023-02-15T15:49:32;18.20;;;10.80;;
69126;SDS011;56688;50.234;19.292;2023-02-15T15:54:48;23.40;;;10.60;;
69126;SDS011;56688;50.234;19.292;2023-02-15T15:57:22;20.60;;;10.60;;
69126;SDS011;56688;50.234;19.292;2023-02-15T15:59:55;17.00;;;9.50;;
69126;SDS011;56688;50.234;19.292;2023-02-15T16:02:25;27.00;;;11.50;;
69126;SDS011;56688;50.234;19.292;2023-02-15T16:04:52;20.70;;;11.10;;
69126;SDS011;56688;50.234;19.292;2023-02-15T16:12:30;14.20;;;8.80;;
69126;SDS011;56688;50.234;19.292;2023-02-15T16:15:01;18.60;;;10.20;;
69126;SDS011;56688;50.234;19.292;2023-02-15T16:17:31;26.60;;;13.40;;
69126;SDS011;56688;50.234;19.292;2023-02-15T16:20:02;23.60;;;12.50;;
69126;SDS011;56688;50.234;19.292;2023-02-15T16:22:46;30.40;;;13.60;;
69126;SDS011;56688;50.234;19.292;2023-02-15T16:27:52;41.30;;;15.70;;
69126;SDS011;56688;50.234;19.292;2023-02-15T16:32:46;33.60;;;13.60;;
69126;SDS011;56688;50.234;19.292;2023-02-15T16:35:17;25.10;;;10.50;;
69126;SDS011;56688;50.234;19.292;2023-02-15T16:37:45;47.80;;;18.60;;
69126;SDS011;56688;50.234;19.292;2023-02-15T16:43:10;27.00;;;13.30;;
69126;SDS011;56688;50.234;19.292;2023-02-15T16:45:43;34.90;;;15.80;;
69126;SDS011;56688;50.234;19.292;2023-02-15T16:48:12;35.10;;;13.80;;
69126;SDS011;56688;50.234;19.292;2023-02-15T16:50:48;30.40;;;14.90;;
69126;SDS011;56688;50.234;19.292;2023-02-15T16:53:18;46.60;;;20.80;;
69126;SDS011;56688;50.234;19.292;2023-02-15T16:55:50;48.00;;;23.60;;
69126;SDS011;56688;50.234;19.292;2023-02-15T16:58:23;50.90;;;22.40;;
69126;SDS011;56688;50.234;19.292;2023-02-15T17:00:58;48.80;;;22.40;;
69126;SDS011;56688;50.234;19.292;2023-02-15T17:03:28;54.70;;;23.70;;
69126;SDS011;56688;50.234;19.292;2023-02-15T17:05:57;45.10;;;21.30;;
69126;SDS011;56688;50.234;19.292;2023-02-15T17:08:27;52.70;;;25.80;;
69126;SDS011;56688;50.234;19.292;2023-02-15T17:13:26;55.30;;;26.20;;
69126;SDS011;56688;50.234;19.292;2023-02-15T17:18:30;64.10;;;30.40;;
69126;SDS011;56688;50.234;19.292;2023-02-15T17:21:17;69.50;;;31.60;;
69126;SDS011;56688;50.234;19.292;2023-02-15T17:23:48;58.30;;;28.10;;
69126;SDS011;56688;50.234;19.292;2023-02-15T17:26:25;59.90;;;27.30;;
69126;SDS011;56688;50.234;19.292;2023-02-15T17:28:56;52.10;;;26.70;;
69126;SDS011;56688;50.234;19.292;2023-02-15T17:31:31;53.00;;;25.90;;
69126;SDS011;56688;50.234;19.292;2023-02-15T17:34:00;56.40;;;24.10;;
69126;SDS011;56688;50.234;19.292;2023-02-15T17:36:28;54.70;;;25.10;;
69126;SDS011;56688;50.234;19.292;2023-02-15T17:43:52;54.20;;;24.70;;
69126;SDS011;56688;50.234;19.292;2023-02-15T17:46:19;50.80;;;23.70;;
69126;SDS011;56688;50.234;19.292;2023-02-15T17:48:51;107.50;;;43.40;;
69126;SDS011;56688;50.234;19.292;2023-02-15T17:51:22;73.60;;;32.10;;
69126;SDS011;56688;50.234;19.292;2023-02-15T17:53:49;57.60;;;25.80;;
69126;SDS011;56688;50.234;19.292;2023-02-15T17:56:32;47.40;;;23.00;;
69126;SDS011;56688;50.234;19.292;2023-02-15T17:59:00;51.10;;;24.10;;
69126;SDS011;56688;50.234;19.292;2023-02-15T18:01:27;52.70;;;24.60;;
69126;SDS011;56688;50.234;19.292;2023-02-15T18:04:11;54.30;;;26.10;;